Flight Track Log - Related Links

Times and Time Zones

All times are in EDT time to prevent confusion due to time zone crossing. See the JTA613 flight status page for this flight to view local times or setup timezone preferences in your user account.


Time Position Orientation Groundspeed Altitude Reporting Facility
EDT Latitude Longitude Course Direction KTS MPH feet Rate Location/Type
Fri 01:33:00 AM 26.0449 127.3540 240° Southwest  Level Estimated
Fri 01:34:00 AM 25.9945 127.2569 240° Southwest  Level Estimated
Fri 01:35:00 AM 25.9440 127.1598 240° Southwest  Level Estimated
Fri 01:36:00 AM 25.8934 127.0629 240° Southwest  Level Estimated
Fri 01:37:00 AM 25.8428 126.9660 240° Southwest  Level Estimated
Fri 01:38:00 AM 25.7921 126.8692 240° Southwest  Level Estimated
Fri 01:39:00 AM 25.7413 126.7725 240° Southwest  Level Estimated
Fri 01:40:00 AM 25.6905 126.6759 240° Southwest  Level Estimated
Fri 01:41:00 AM 25.6396 126.5794 240° Southwest  Level Estimated
Fri 01:42:00 AM 25.5887 126.4829 240° Southwest  Level Estimated
Fri 01:43:00 AM 25.5377 126.3865 240° Southwest  Level Estimated
Fri 01:44:00 AM 25.4851 126.2875 240° Southwest  Level Estimated
Fri 01:45:00 AM 25.4325 126.1885 240° Southwest  Level Estimated
Fri 01:46:00 AM 25.3799 126.0897 239° Southwest  Level Estimated
Fri 01:47:00 AM 25.3271 125.9909 239° Southwest  Level Estimated
Fri 01:48:00 AM 25.2743 125.8922 239° Southwest  Level Estimated
Fri 01:49:00 AM 25.2215 125.7935 239° Southwest  Level Estimated
Fri 01:50:00 AM 25.1685 125.6950 239° Southwest  Level Estimated
Fri 01:51:00 AM 25.1155 125.5966 239° Southwest  Level Estimated
Fri 01:52:00 AM 25.0625 125.4982 239° Southwest  Level Estimated
Fri 01:53:00 AM 25.0093 125.3999 239° Southwest  Level Estimated
Fri 01:54:00 AM 24.9562 125.3018 239° Southwest  Level Estimated
Fri 01:55:00 AM 24.9029 125.2037 239° Southwest  Level Estimated
Fri 01:56:00 AM 24.8496 125.1056 239° Southwest  Level Estimated
Fri 01:57:00 AM 24.7962 125.0077 239° Southwest  Level Estimated
Fri 01:58:00 AM 24.7428 124.9099 239° Southwest  Level Estimated
Fri 01:59:00 AM 24.6893 124.8121 239° Southwest  Level Estimated
Fri 02:00:00 AM 24.6357 124.7144 239° Southwest  Level Estimated
Fri 02:01:00 AM 24.5820 124.6168 239° Southwest  Level Estimated
Fri 02:02:00 AM 24.5283 124.5193 239° Southwest  Level Estimated
Fri 02:03:00 AM 24.4746 124.4219 239° Southwest  Level Estimated
Fri 02:04:00 AM 24.4208 124.3245 239° Southwest  Level Estimated
Fri 02:05:00 AM 24.3669 124.2273 239° Southwest  Level Estimated
Fri 02:06:00 AM 24.3445 124.1870 239° Southwest  Level Estimated
Fri 02:07:00 AM 24.3445 124.1870 29° Northeast  Level Estimated
Fri 02:08:00 AM 24.3445 124.1870 29° Northeast  Level Estimated
Fri 02:09:00 AM 24.3445 124.1870 29° Northeast  Level Estimated
Fri 02:10:00 AM 24.3445 124.1870 29° Northeast  Level Estimated
Fri 02:11:00 AM 24.3445 124.1870 29° Northeast  Level Estimated
Fri 02:12:00 AM 24.3445 124.1870 29° Northeast  Level Estimated
Fri 02:13:00 AM 24.3445 124.1870 29° Northeast  Level Estimated
Fri 02:14:00 AM 24.3445 124.1870 29° Northeast  Level Estimated

Login

Don't have an account? Register now (free) for customized features, flight alerts, and more!